sensor_id;sensor_type;location;lat;lon;timestamp;P1;durP1;ratioP1;P2;durP2;ratioP2
22066;SDS011;72821;49.814;19.034;2023-09-19T00:03:48;7.93;;;6.07;;
22066;SDS011;72821;49.814;19.034;2023-09-19T00:08:51;7.63;;;6.10;;
22066;SDS011;72821;49.814;19.034;2023-09-19T00:13:54;10.45;;;5.97;;
22066;SDS011;72821;49.814;19.034;2023-09-19T00:18:59;9.02;;;5.88;;
22066;SDS011;72821;49.814;19.034;2023-09-19T00:24:05;8.10;;;5.60;;
22066;SDS011;72821;49.814;19.034;2023-09-19T00:29:10;10.45;;;6.30;;
22066;SDS011;72821;49.814;19.034;2023-09-19T00:34:12;9.10;;;5.90;;
22066;SDS011;72821;49.814;19.034;2023-09-19T00:39:16;7.95;;;5.53;;
22066;SDS011;72821;49.814;19.034;2023-09-19T00:44:18;6.90;;;5.65;;
22066;SDS011;72821;49.814;19.034;2023-09-19T00:49:22;6.57;;;5.30;;
22066;SDS011;72821;49.814;19.034;2023-09-19T00:54:25;9.80;;;5.43;;
22066;SDS011;72821;49.814;19.034;2023-09-19T00:59:28;9.02;;;5.32;;
22066;SDS011;72821;49.814;19.034;2023-09-19T01:04:31;5.65;;;4.93;;
22066;SDS011;72821;49.814;19.034;2023-09-19T01:09:35;7.22;;;5.15;;
22066;SDS011;72821;49.814;19.034;2023-09-19T01:30:24;7.05;;;4.90;;
22066;SDS011;72821;49.814;19.034;2023-09-19T01:35:29;7.90;;;5.40;;
22066;SDS011;72821;49.814;19.034;2023-09-19T01:40:31;8.45;;;5.72;;
22066;SDS011;72821;49.814;19.034;2023-09-19T01:51:00;6.90;;;5.45;;
22066;SDS011;72821;49.814;19.034;2023-09-19T01:56:08;7.28;;;5.85;;
22066;SDS011;72821;49.814;19.034;2023-09-19T02:01:16;5.90;;;5.00;;
22066;SDS011;72821;49.814;19.034;2023-09-19T02:06:24;9.27;;;6.00;;
22066;SDS011;72821;49.814;19.034;2023-09-19T02:11:27;7.45;;;5.47;;
22066;SDS011;72821;49.814;19.034;2023-09-19T02:16:30;7.55;;;5.78;;
22066;SDS011;72821;49.814;19.034;2023-09-19T02:21:32;8.95;;;5.97;;
22066;SDS011;72821;49.814;19.034;2023-09-19T02:26:34;6.35;;;5.28;;
22066;SDS011;72821;49.814;19.034;2023-09-19T02:31:38;6.47;;;5.20;;
22066;SDS011;72821;49.814;19.034;2023-09-19T02:36:41;6.63;;;5.05;;
22066;SDS011;72821;49.814;19.034;2023-09-19T02:41:45;7.75;;;5.90;;
22066;SDS011;72821;49.814;19.034;2023-09-19T02:46:48;7.93;;;5.75;;
22066;SDS011;72821;49.814;19.034;2023-09-19T02:51:50;7.75;;;5.32;;
22066;SDS011;72821;49.814;19.034;2023-09-19T02:56:53;9.50;;;5.70;;
22066;SDS011;72821;49.814;19.034;2023-09-19T03:01:55;7.25;;;5.97;;
22066;SDS011;72821;49.814;19.034;2023-09-19T03:06:58;8.88;;;6.50;;
22066;SDS011;72821;49.814;19.034;2023-09-19T03:12:02;8.48;;;5.97;;
22066;SDS011;72821;49.814;19.034;2023-09-19T03:17:05;7.60;;;5.88;;
22066;SDS011;72821;49.814;19.034;2023-09-19T03:22:08;7.97;;;6.63;;
22066;SDS011;72821;49.814;19.034;2023-09-19T03:27:10;7.30;;;6.32;;
22066;SDS011;72821;49.814;19.034;2023-09-19T03:32:15;10.75;;;6.60;;
22066;SDS011;72821;49.814;19.034;2023-09-19T03:37:17;10.68;;;6.53;;
22066;SDS011;72821;49.814;19.034;2023-09-19T03:42:20;10.73;;;7.68;;
22066;SDS011;72821;49.814;19.034;2023-09-19T03:47:27;10.02;;;7.15;;
22066;SDS011;72821;49.814;19.034;2023-09-19T03:52:29;20.33;;;12.57;;
22066;SDS011;72821;49.814;19.034;2023-09-19T03:57:31;13.15;;;10.98;;
22066;SDS011;72821;49.814;19.034;2023-09-19T04:02:34;18.45;;;13.15;;
22066;SDS011;72821;49.814;19.034;2023-09-19T04:07:36;19.55;;;15.50;;
22066;SDS011;72821;49.814;19.034;2023-09-19T04:12:38;17.00;;;14.52;;
22066;SDS011;72821;49.814;19.034;2023-09-19T04:17:41;23.65;;;20.42;;
22066;SDS011;72821;49.814;19.034;2023-09-19T04:22:43;30.63;;;24.60;;
22066;SDS011;72821;49.814;19.034;2023-09-19T04:27:46;41.85;;;31.40;;
22066;SDS011;72821;49.814;19.034;2023-09-19T04:32:48;38.22;;;29.00;;
22066;SDS011;72821;49.814;19.034;2023-09-19T04:37:53;38.65;;;27.55;;
22066;SDS011;72821;49.814;19.034;2023-09-19T04:42:56;31.95;;;26.42;;
22066;SDS011;72821;49.814;19.034;2023-09-19T04:47:59;31.10;;;24.85;;
22066;SDS011;72821;49.814;19.034;2023-09-19T04:53:01;27.17;;;23.95;;
22066;SDS011;72821;49.814;19.034;2023-09-19T04:58:04;29.80;;;24.35;;
22066;SDS011;72821;49.814;19.034;2023-09-19T05:03:07;32.10;;;23.35;;
22066;SDS011;72821;49.814;19.034;2023-09-19T05:08:11;36.47;;;26.40;;
22066;SDS011;72821;49.814;19.034;2023-09-19T05:13:16;29.65;;;23.88;;
22066;SDS011;72821;49.814;19.034;2023-09-19T05:18:19;28.80;;;23.92;;
22066;SDS011;72821;49.814;19.034;2023-09-19T05:23:21;40.80;;;29.13;;
22066;SDS011;72821;49.814;19.034;2023-09-19T05:28:23;54.03;;;37.75;;
22066;SDS011;72821;49.814;19.034;2023-09-19T05:33:26;48.53;;;36.30;;
22066;SDS011;72821;49.814;19.034;2023-09-19T05:38:29;53.40;;;37.88;;
22066;SDS011;72821;49.814;19.034;2023-09-19T05:43:31;47.92;;;35.72;;
22066;SDS011;72821;49.814;19.034;2023-09-19T05:48:34;42.97;;;33.28;;
22066;SDS011;72821;49.814;19.034;2023-09-19T05:53:40;50.65;;;35.78;;
22066;SDS011;72821;49.814;19.034;2023-09-19T05:58:45;59.45;;;39.60;;
22066;SDS011;72821;49.814;19.034;2023-09-19T06:03:47;36.38;;;26.10;;
22066;SDS011;72821;49.814;19.034;2023-09-19T06:08:49;30.77;;;20.90;;
22066;SDS011;72821;49.814;19.034;2023-09-19T06:13:52;33.83;;;21.95;;
22066;SDS011;72821;49.814;19.034;2023-09-19T06:18:55;30.45;;;20.13;;
22066;SDS011;72821;49.814;19.034;2023-09-19T06:23:57;27.70;;;18.85;;
22066;SDS011;72821;49.814;19.034;2023-09-19T06:29:00;29.27;;;18.02;;
22066;SDS011;72821;49.814;19.034;2023-09-19T06:39:10;16.17;;;8.75;;
22066;SDS011;72821;49.814;19.034;2023-09-19T06:44:13;16.92;;;10.32;;
22066;SDS011;72821;49.814;19.034;2023-09-19T06:49:16;19.63;;;13.55;;
22066;SDS011;72821;49.814;19.034;2023-09-19T06:54:19;26.70;;;15.63;;
22066;SDS011;72821;49.814;19.034;2023-09-19T06:59:21;19.60;;;12.77;;
22066;SDS011;72821;49.814;19.034;2023-09-19T07:04:23;16.83;;;10.75;;
22066;SDS011;72821;49.814;19.034;2023-09-19T07:09:26;14.30;;;9.15;;
22066;SDS011;72821;49.814;19.034;2023-09-19T07:14:29;12.25;;;8.52;;
22066;SDS011;72821;49.814;19.034;2023-09-19T07:19:32;12.77;;;8.15;;
22066;SDS011;72821;49.814;19.034;2023-09-19T07:24:34;10.10;;;7.20;;
22066;SDS011;72821;49.814;19.034;2023-09-19T07:29:38;11.43;;;7.32;;
22066;SDS011;72821;49.814;19.034;2023-09-19T07:34:41;11.52;;;7.45;;
22066;SDS011;72821;49.814;19.034;2023-09-19T07:39:43;13.80;;;8.23;;
22066;SDS011;72821;49.814;19.034;2023-09-19T07:44:46;11.15;;;7.85;;
22066;SDS011;72821;49.814;19.034;2023-09-19T07:49:51;14.55;;;9.23;;
22066;SDS011;72821;49.814;19.034;2023-09-19T07:54:53;15.82;;;9.95;;
22066;SDS011;72821;49.814;19.034;2023-09-19T07:59:56;16.38;;;11.25;;
22066;SDS011;72821;49.814;19.034;2023-09-19T08:04:59;15.68;;;9.10;;
22066;SDS011;72821;49.814;19.034;2023-09-19T08:10:03;9.93;;;6.70;;
22066;SDS011;72821;49.814;19.034;2023-09-19T08:15:09;7.25;;;5.57;;
22066;SDS011;72821;49.814;19.034;2023-09-19T08:20:11;9.07;;;5.38;;
22066;SDS011;72821;49.814;19.034;2023-09-19T08:25:21;7.82;;;5.38;;
22066;SDS011;72821;49.814;19.034;2023-09-19T08:30:25;7.38;;;5.60;;
22066;SDS011;72821;49.814;19.034;2023-09-19T08:35:29;6.63;;;5.65;;
22066;SDS011;72821;49.814;19.034;2023-09-19T08:40:31;8.00;;;6.20;;
22066;SDS011;72821;49.814;19.034;2023-09-19T08:45:35;9.93;;;6.80;;
22066;SDS011;72821;49.814;19.034;2023-09-19T08:56:18;9.05;;;6.57;;
22066;SDS011;72821;49.814;19.034;2023-09-19T09:01:24;8.70;;;7.18;;
22066;SDS011;72821;49.814;19.034;2023-09-19T09:06:31;8.47;;;7.13;;
22066;SDS011;72821;49.814;19.034;2023-09-19T09:11:35;8.00;;;7.20;;
22066;SDS011;72821;49.814;19.034;2023-09-19T09:16:41;8.00;;;7.20;;
22066;SDS011;72821;49.814;19.034;2023-09-19T09:21:44;11.35;;;8.13;;
22066;SDS011;72821;49.814;19.034;2023-09-19T09:26:46;9.05;;;8.15;;
22066;SDS011;72821;49.814;19.034;2023-09-19T09:31:49;9.70;;;8.13;;
22066;SDS011;72821;49.814;19.034;2023-09-19T09:36:52;8.95;;;8.02;;
22066;SDS011;72821;49.814;19.034;2023-09-19T09:41:54;8.88;;;7.43;;
22066;SDS011;72821;49.814;19.034;2023-09-19T09:46:57;10.02;;;6.68;;
22066;SDS011;72821;49.814;19.034;2023-09-19T09:52:22;9.77;;;6.63;;
22066;SDS011;72821;49.814;19.034;2023-09-19T09:57:26;8.82;;;6.63;;
22066;SDS011;72821;49.814;19.034;2023-09-19T10:02:29;7.55;;;5.20;;
22066;SDS011;72821;49.814;19.034;2023-09-19T10:07:38;8.63;;;6.20;;
22066;SDS011;72821;49.814;19.034;2023-09-19T10:12:46;7.63;;;5.97;;
22066;SDS011;72821;49.814;19.034;2023-09-19T10:17:52;5.97;;;4.18;;
22066;SDS011;72821;49.814;19.034;2023-09-19T10:22:59;8.10;;;4.50;;
22066;SDS011;72821;49.814;19.034;2023-09-19T10:28:02;7.25;;;5.30;;
22066;SDS011;72821;49.814;19.034;2023-09-19T10:33:14;6.43;;;5.30;;
22066;SDS011;72821;49.814;19.034;2023-09-19T10:38:19;7.53;;;5.90;;
22066;SDS011;72821;49.814;19.034;2023-09-19T10:43:25;7.88;;;5.30;;
22066;SDS011;72821;49.814;19.034;2023-09-19T10:48:36;9.88;;;7.20;;
22066;SDS011;72821;49.814;19.034;2023-09-19T10:54:05;8.07;;;6.43;;
22066;SDS011;72821;49.814;19.034;2023-09-19T10:59:09;6.50;;;5.43;;
22066;SDS011;72821;49.814;19.034;2023-09-19T11:04:35;5.18;;;4.20;;
22066;SDS011;72821;49.814;19.034;2023-09-19T11:09:51;6.57;;;4.90;;
22066;SDS011;72821;49.814;19.034;2023-09-19T11:15:06;5.13;;;4.10;;
22066;SDS011;72821;49.814;19.034;2023-09-19T11:30:40;5.00;;;3.65;;
22066;SDS011;72821;49.814;19.034;2023-09-19T11:46:23;6.72;;;4.80;;
22066;SDS011;72821;49.814;19.034;2023-09-19T11:51:26;5.80;;;3.45;;
22066;SDS011;72821;49.814;19.034;2023-09-19T11:56:29;5.00;;;3.22;;
22066;SDS011;72821;49.814;19.034;2023-09-19T12:01:33;5.32;;;3.28;;
22066;SDS011;72821;49.814;19.034;2023-09-19T12:06:37;3.97;;;3.10;;
22066;SDS011;72821;49.814;19.034;2023-09-19T12:11:46;6.28;;;4.85;;
22066;SDS011;72821;49.814;19.034;2023-09-19T12:16:53;4.05;;;3.38;;
22066;SDS011;72821;49.814;19.034;2023-09-19T12:22:01;5.05;;;3.33;;
22066;SDS011;72821;49.814;19.034;2023-09-19T12:27:07;8.98;;;6.43;;
22066;SDS011;72821;49.814;19.034;2023-09-19T12:32:12;4.47;;;3.17;;
22066;SDS011;72821;49.814;19.034;2023-09-19T12:37:16;4.70;;;3.20;;
22066;SDS011;72821;49.814;19.034;2023-09-19T12:42:25;5.60;;;2.92;;
22066;SDS011;72821;49.814;19.034;2023-09-19T12:47:37;5.78;;;3.45;;
22066;SDS011;72821;49.814;19.034;2023-09-19T12:58:12;3.15;;;2.55;;
22066;SDS011;72821;49.814;19.034;2023-09-19T13:08:31;4.13;;;2.92;;
22066;SDS011;72821;49.814;19.034;2023-09-19T13:13:41;4.03;;;2.50;;
22066;SDS011;72821;49.814;19.034;2023-09-19T13:18:52;4.50;;;2.20;;
22066;SDS011;72821;49.814;19.034;2023-09-19T13:24:17;4.28;;;2.50;;
22066;SDS011;72821;49.814;19.034;2023-09-19T13:29:21;3.67;;;2.10;;
22066;SDS011;72821;49.814;19.034;2023-09-19T13:34:23;7.78;;;2.08;;
22066;SDS011;72821;49.814;19.034;2023-09-19T13:39:26;4.93;;;2.10;;
22066;SDS011;72821;49.814;19.034;2023-09-19T13:44:29;3.83;;;2.08;;
22066;SDS011;72821;49.814;19.034;2023-09-19T13:49:31;2.53;;;1.60;;
22066;SDS011;72821;49.814;19.034;2023-09-19T13:54:34;3.40;;;2.08;;
22066;SDS011;72821;49.814;19.034;2023-09-19T13:59:36;2.38;;;1.60;;
22066;SDS011;72821;49.814;19.034;2023-09-19T14:04:39;3.28;;;1.90;;
22066;SDS011;72821;49.814;19.034;2023-09-19T14:09:42;3.95;;;1.77;;
22066;SDS011;72821;49.814;19.034;2023-09-19T14:14:44;4.20;;;1.80;;
22066;SDS011;72821;49.814;19.034;2023-09-19T14:19:47;2.88;;;1.80;;
22066;SDS011;72821;49.814;19.034;2023-09-19T14:24:49;2.75;;;1.90;;
22066;SDS011;72821;49.814;19.034;2023-09-19T14:29:51;5.45;;;2.30;;
22066;SDS011;72821;49.814;19.034;2023-09-19T14:34:54;4.93;;;1.92;;
22066;SDS011;72821;49.814;19.034;2023-09-19T14:39:56;3.45;;;2.47;;
22066;SDS011;72821;49.814;19.034;2023-09-19T14:44:59;3.53;;;1.90;;
22066;SDS011;72821;49.814;19.034;2023-09-19T14:50:05;5.30;;;2.20;;
22066;SDS011;72821;49.814;19.034;2023-09-19T14:55:08;3.28;;;1.75;;
22066;SDS011;72821;49.814;19.034;2023-09-19T15:00:17;3.17;;;1.50;;
22066;SDS011;72821;49.814;19.034;2023-09-19T15:05:21;2.38;;;1.10;;
22066;SDS011;72821;49.814;19.034;2023-09-19T15:10:24;2.75;;;1.40;;
22066;SDS011;72821;49.814;19.034;2023-09-19T15:15:27;3.28;;;2.10;;
22066;SDS011;72821;49.814;19.034;2023-09-19T15:20:34;3.57;;;1.33;;
22066;SDS011;72821;49.814;19.034;2023-09-19T15:25:36;3.10;;;1.35;;
22066;SDS011;72821;49.814;19.034;2023-09-19T15:30:39;3.28;;;1.58;;
22066;SDS011;72821;49.814;19.034;2023-09-19T15:35:41;3.83;;;1.40;;
22066;SDS011;72821;49.814;19.034;2023-09-19T15:40:46;3.83;;;1.30;;
22066;SDS011;72821;49.814;19.034;2023-09-19T15:45:50;3.60;;;1.70;;
22066;SDS011;72821;49.814;19.034;2023-09-19T15:50:54;3.00;;;1.52;;
22066;SDS011;72821;49.814;19.034;2023-09-19T15:55:57;2.83;;;1.80;;
22066;SDS011;72821;49.814;19.034;2023-09-19T16:01:09;2.55;;;1.85;;
22066;SDS011;72821;49.814;19.034;2023-09-19T16:06:15;2.40;;;1.50;;
22066;SDS011;72821;49.814;19.034;2023-09-19T16:11:26;3.33;;;1.90;;
22066;SDS011;72821;49.814;19.034;2023-09-19T16:16:29;4.75;;;1.65;;
22066;SDS011;72821;49.814;19.034;2023-09-19T16:21:33;3.60;;;1.73;;
22066;SDS011;72821;49.814;19.034;2023-09-19T16:26:38;3.47;;;1.70;;
22066;SDS011;72821;49.814;19.034;2023-09-19T16:31:41;5.50;;;3.17;;
22066;SDS011;72821;49.814;19.034;2023-09-19T16:36:45;6.78;;;4.82;;
22066;SDS011;72821;49.814;19.034;2023-09-19T16:41:47;7.28;;;4.85;;
22066;SDS011;72821;49.814;19.034;2023-09-19T16:46:51;5.70;;;4.47;;
22066;SDS011;72821;49.814;19.034;2023-09-19T16:51:53;7.20;;;4.18;;
22066;SDS011;72821;49.814;19.034;2023-09-19T16:56:56;6.78;;;4.40;;
22066;SDS011;72821;49.814;19.034;2023-09-19T17:01:59;7.72;;;3.92;;
22066;SDS011;72821;49.814;19.034;2023-09-19T17:07:03;4.88;;;3.08;;
22066;SDS011;72821;49.814;19.034;2023-09-19T17:12:05;4.57;;;2.88;;
22066;SDS011;72821;49.814;19.034;2023-09-19T17:17:08;5.93;;;3.15;;
22066;SDS011;72821;49.814;19.034;2023-09-19T17:22:11;5.07;;;3.00;;
22066;SDS011;72821;49.814;19.034;2023-09-19T17:27:13;4.63;;;2.78;;
22066;SDS011;72821;49.814;19.034;2023-09-19T17:32:15;8.82;;;3.88;;
22066;SDS011;72821;49.814;19.034;2023-09-19T17:37:18;5.68;;;2.72;;
22066;SDS011;72821;49.814;19.034;2023-09-19T17:42:20;6.15;;;3.13;;
22066;SDS011;72821;49.814;19.034;2023-09-19T17:47:25;4.00;;;2.70;;
22066;SDS011;72821;49.814;19.034;2023-09-19T17:52:27;5.38;;;3.40;;
22066;SDS011;72821;49.814;19.034;2023-09-19T17:57:29;6.78;;;5.03;;
22066;SDS011;72821;49.814;19.034;2023-09-19T18:02:32;7.55;;;3.80;;
22066;SDS011;72821;49.814;19.034;2023-09-19T18:07:35;10.55;;;6.07;;
22066;SDS011;72821;49.814;19.034;2023-09-19T18:12:37;5.68;;;3.72;;
22066;SDS011;72821;49.814;19.034;2023-09-19T18:17:39;4.60;;;2.92;;
22066;SDS011;72821;49.814;19.034;2023-09-19T18:22:42;10.15;;;7.63;;
22066;SDS011;72821;49.814;19.034;2023-09-19T18:27:44;6.35;;;4.25;;
22066;SDS011;72821;49.814;19.034;2023-09-19T18:32:48;6.82;;;3.90;;
22066;SDS011;72821;49.814;19.034;2023-09-19T18:37:56;5.20;;;4.03;;
22066;SDS011;72821;49.814;19.034;2023-09-19T18:42:59;8.07;;;5.40;;
22066;SDS011;72821;49.814;19.034;2023-09-19T18:48:01;6.95;;;5.35;;
22066;SDS011;72821;49.814;19.034;2023-09-19T18:53:04;6.38;;;5.70;;
22066;SDS011;72821;49.814;19.034;2023-09-19T18:58:06;11.48;;;8.18;;
22066;SDS011;72821;49.814;19.034;2023-09-19T19:03:09;7.38;;;5.03;;
22066;SDS011;72821;49.814;19.034;2023-09-19T19:08:11;7.22;;;4.30;;
22066;SDS011;72821;49.814;19.034;2023-09-19T19:13:14;4.97;;;3.25;;
22066;SDS011;72821;49.814;19.034;2023-09-19T19:18:17;5.47;;;3.70;;
22066;SDS011;72821;49.814;19.034;2023-09-19T19:23:19;4.93;;;3.03;;
22066;SDS011;72821;49.814;19.034;2023-09-19T19:28:21;4.20;;;2.70;;
22066;SDS011;72821;49.814;19.034;2023-09-19T19:33:26;5.32;;;2.90;;
22066;SDS011;72821;49.814;19.034;2023-09-19T19:38:28;3.55;;;2.15;;
22066;SDS011;72821;49.814;19.034;2023-09-19T19:43:31;3.20;;;2.47;;
22066;SDS011;72821;49.814;19.034;2023-09-19T19:48:33;5.70;;;3.30;;
22066;SDS011;72821;49.814;19.034;2023-09-19T19:53:36;5.43;;;2.90;;
22066;SDS011;72821;49.814;19.034;2023-09-19T19:58:42;5.43;;;3.25;;
22066;SDS011;72821;49.814;19.034;2023-09-19T20:03:47;5.43;;;2.97;;
22066;SDS011;72821;49.814;19.034;2023-09-19T20:08:49;6.47;;;3.60;;
22066;SDS011;72821;49.814;19.034;2023-09-19T20:13:53;5.03;;;3.20;;
22066;SDS011;72821;49.814;19.034;2023-09-19T20:18:57;6.55;;;3.75;;
22066;SDS011;72821;49.814;19.034;2023-09-19T20:24:01;9.15;;;3.92;;
22066;SDS011;72821;49.814;19.034;2023-09-19T20:29:08;6.88;;;4.50;;
22066;SDS011;72821;49.814;19.034;2023-09-19T20:34:10;6.53;;;4.55;;
22066;SDS011;72821;49.814;19.034;2023-09-19T20:39:12;6.97;;;4.88;;
22066;SDS011;72821;49.814;19.034;2023-09-19T20:44:17;7.75;;;6.20;;
22066;SDS011;72821;49.814;19.034;2023-09-19T20:49:20;6.30;;;4.80;;
22066;SDS011;72821;49.814;19.034;2023-09-19T20:54:23;6.88;;;5.10;;
22066;SDS011;72821;49.814;19.034;2023-09-19T20:59:25;7.43;;;4.82;;
22066;SDS011;72821;49.814;19.034;2023-09-19T21:04:27;9.90;;;5.47;;
22066;SDS011;72821;49.814;19.034;2023-09-19T21:09:31;6.78;;;5.00;;
22066;SDS011;72821;49.814;19.034;2023-09-19T21:14:33;8.30;;;4.72;;
22066;SDS011;72821;49.814;19.034;2023-09-19T21:19:38;8.68;;;5.03;;
22066;SDS011;72821;49.814;19.034;2023-09-19T21:24:40;6.53;;;4.45;;
22066;SDS011;72821;49.814;19.034;2023-09-19T21:29:42;7.28;;;4.35;;
22066;SDS011;72821;49.814;19.034;2023-09-19T21:34:45;8.18;;;4.25;;
22066;SDS011;72821;49.814;19.034;2023-09-19T21:39:47;8.40;;;3.95;;
22066;SDS011;72821;49.814;19.034;2023-09-19T21:44:50;6.65;;;4.32;;
22066;SDS011;72821;49.814;19.034;2023-09-19T21:49:52;6.53;;;4.15;;
22066;SDS011;72821;49.814;19.034;2023-09-19T21:54:56;6.30;;;3.92;;
22066;SDS011;72821;49.814;19.034;2023-09-19T21:59:58;8.05;;;4.28;;
22066;SDS011;72821;49.814;19.034;2023-09-19T22:05:01;5.93;;;3.85;;
22066;SDS011;72821;49.814;19.034;2023-09-19T22:10:08;5.97;;;3.70;;
22066;SDS011;72821;49.814;19.034;2023-09-19T22:15:11;7.18;;;3.85;;
22066;SDS011;72821;49.814;19.034;2023-09-19T22:20:14;6.47;;;3.75;;
22066;SDS011;72821;49.814;19.034;2023-09-19T22:25:28;7.60;;;4.03;;
22066;SDS011;72821;49.814;19.034;2023-09-19T22:30:39;7.35;;;4.25;;
22066;SDS011;72821;49.814;19.034;2023-09-19T22:35:48;6.88;;;3.50;;
22066;SDS011;72821;49.814;19.034;2023-09-19T22:41:05;6.07;;;3.75;;
22066;SDS011;72821;49.814;19.034;2023-09-19T22:46:12;5.40;;;3.27;;
22066;SDS011;72821;49.814;19.034;2023-09-19T22:51:16;5.45;;;3.38;;
22066;SDS011;72821;49.814;19.034;2023-09-19T22:56:25;5.75;;;4.15;;
22066;SDS011;72821;49.814;19.034;2023-09-19T23:01:29;7.05;;;3.80;;
22066;SDS011;72821;49.814;19.034;2023-09-19T23:06:37;5.43;;;3.53;;
22066;SDS011;72821;49.814;19.034;2023-09-19T23:11:40;5.47;;;4.32;;
22066;SDS011;72821;49.814;19.034;2023-09-19T23:16:45;5.07;;;3.53;;
22066;SDS011;72821;49.814;19.034;2023-09-19T23:21:58;6.38;;;3.88;;
22066;SDS011;72821;49.814;19.034;2023-09-19T23:27:08;5.32;;;3.30;;
22066;SDS011;72821;49.814;19.034;2023-09-19T23:32:13;5.80;;;3.38;;
22066;SDS011;72821;49.814;19.034;2023-09-19T23:37:17;8.50;;;3.80;;
22066;SDS011;72821;49.814;19.034;2023-09-19T23:42:22;6.10;;;3.42;;
22066;SDS011;72821;49.814;19.034;2023-09-19T23:47:24;8.27;;;3.25;;
22066;SDS011;72821;49.814;19.034;2023-09-19T23:52:28;5.55;;;3.00;;
22066;SDS011;72821;49.814;19.034;2023-09-19T23:57:30;5.40;;;3.28;;
